createdAt,value
2023-07-30T00:01:57.081Z,54.79
2023-07-30T00:04:17.665Z,54.88
2023-07-30T00:06:38.201Z,54.54
2023-07-30T00:08:58.815Z,55.14
2023-07-30T00:11:19.477Z,54.77
2023-07-30T00:13:40.162Z,54.46
2023-07-30T00:16:00.742Z,54.75
2023-07-30T00:18:21.199Z,54.90
2023-07-30T00:20:41.963Z,55.14
2023-07-30T00:23:02.833Z,54.75
2023-07-30T00:25:23.620Z,55.15
2023-07-30T00:27:44.207Z,55.38
2023-07-30T00:30:05.413Z,54.88
2023-07-30T00:32:26.191Z,55.03
2023-07-30T00:34:46.780Z,55.11
2023-07-30T00:37:07.303Z,54.77
2023-07-30T00:39:27.905Z,54.81
2023-07-30T00:41:48.669Z,54.65
2023-07-30T00:44:09.502Z,54.84
2023-07-30T00:46:30.433Z,54.71
2023-07-30T00:48:51.716Z,54.84
2023-07-30T00:51:14.779Z,54.66
2023-07-30T00:53:35.215Z,55.06
2023-07-30T00:55:56.090Z,54.77
2023-07-30T00:58:17.987Z,54.93
2023-07-30T01:00:38.918Z,54.52
2023-07-30T01:03:00.397Z,54.79
2023-07-30T01:05:21.473Z,54.59
2023-07-30T01:07:42.110Z,53.96
2023-07-30T01:10:04.035Z,54.65
2023-07-30T01:12:24.937Z,54.27
2023-07-30T01:14:46.747Z,54.61
2023-07-30T01:17:07.634Z,54.30
2023-07-30T01:19:28.493Z,54.38
2023-07-30T01:21:49.088Z,54.12
2023-07-30T01:24:09.720Z,54.62
2023-07-30T01:26:41.338Z,54.51
2023-07-30T01:29:08.003Z,53.99
2023-07-30T01:31:33.070Z,54.80
2023-07-30T01:33:56.514Z,55.23
2023-07-30T01:36:17.793Z,56.03
2023-07-30T01:38:40.601Z,55.58
2023-07-30T01:41:01.289Z,55.04
2023-07-30T01:43:22.050Z,55.12
2023-07-30T01:45:42.696Z,55.39
2023-07-30T01:48:03.269Z,55.30
2023-07-30T01:50:23.988Z,55.18
2023-07-30T01:52:44.388Z,55.05
2023-07-30T01:55:05.320Z,56.70
2023-07-30T01:57:25.898Z,57.04
2023-07-30T01:59:46.613Z,57.22
2023-07-30T02:02:08.323Z,57.56
2023-07-30T02:04:28.886Z,58.34
2023-07-30T02:06:49.747Z,57.98
2023-07-30T02:09:10.570Z,57.07
2023-07-30T02:11:31.024Z,57.01
2023-07-30T02:13:51.507Z,55.68
2023-07-30T02:16:11.974Z,56.39
2023-07-30T02:18:32.456Z,55.84
2023-07-30T02:20:52.930Z,54.60
2023-07-30T02:23:15.476Z,54.18
2023-07-30T02:25:36.477Z,54.25
2023-07-30T02:27:58.057Z,53.45
2023-07-30T02:30:19.244Z,54.36
2023-07-30T02:32:39.943Z,54.59
2023-07-30T02:35:00.371Z,54.11
2023-07-30T02:37:20.990Z,53.34
2023-07-30T02:39:42.282Z,53.53
2023-07-30T02:42:02.891Z,54.08
2023-07-30T02:44:23.708Z,54.11
2023-07-30T02:46:44.587Z,53.79
2023-07-30T02:49:05.500Z,53.79
2023-07-30T02:51:26.090Z,54.26
2023-07-30T02:53:46.611Z,54.47
2023-07-30T02:56:07.546Z,54.25
2023-07-30T02:58:28.113Z,54.94
2023-07-30T03:00:48.575Z,54.83
2023-07-30T03:03:09.312Z,54.67
2023-07-30T03:05:30.336Z,54.59
2023-07-30T03:07:50.894Z,54.91
2023-07-30T03:10:11.727Z,54.40
2023-07-30T03:12:32.283Z,54.78
2023-07-30T03:14:52.912Z,54.86
2023-07-30T03:17:13.592Z,55.77
2023-07-30T03:19:34.404Z,55.68
2023-07-30T03:21:54.784Z,55.48
2023-07-30T03:24:15.235Z,55.74
2023-07-30T03:26:35.843Z,55.55
2023-07-30T03:28:56.537Z,56.01
2023-07-30T03:31:17.238Z,56.11
2023-07-30T03:33:40.263Z,55.85
2023-07-30T03:36:00.803Z,55.80
2023-07-30T03:38:21.436Z,55.65
2023-07-30T03:40:42.090Z,55.73
2023-07-30T03:43:02.612Z,55.65
2023-07-30T03:45:23.296Z,55.65
2023-07-30T03:47:44.254Z,55.68
2023-07-30T03:50:05.266Z,55.88
2023-07-30T03:52:26.135Z,55.36
2023-07-30T03:54:46.940Z,55.67
2023-07-30T03:57:07.470Z,55.79
2023-07-30T03:59:29.607Z,55.50
2023-07-30T04:01:50.428Z,55.94
2023-07-30T04:04:10.991Z,55.71
2023-07-30T04:06:31.789Z,55.62
2023-07-30T04:08:52.123Z,55.68
2023-07-30T04:11:12.873Z,55.80
2023-07-30T04:13:33.332Z,55.53
2023-07-30T04:15:53.869Z,55.62
2023-07-30T04:18:14.445Z,55.81
2023-07-30T04:20:35.009Z,55.56
2023-07-30T04:22:55.487Z,56.08
2023-07-30T04:25:16.022Z,56.10
2023-07-30T04:27:36.490Z,56.28
2023-07-30T04:29:57.372Z,55.98
2023-07-30T04:32:17.863Z,56.86
2023-07-30T04:34:39.029Z,56.46
2023-07-30T04:36:59.799Z,56.05
2023-07-30T04:39:20.260Z,56.01
2023-07-30T04:41:41.085Z,55.86
2023-07-30T04:44:01.964Z,55.77
2023-07-30T04:46:22.532Z,55.94
2023-07-30T04:48:43.148Z,56.23
2023-07-30T04:51:04.395Z,56.13
2023-07-30T04:53:25.025Z,56.38
2023-07-30T04:55:45.605Z,56.48
2023-07-30T04:58:06.075Z,56.79
2023-07-30T05:00:26.765Z,57.06
2023-07-30T05:02:47.698Z,57.04
2023-07-30T05:05:08.455Z,55.88
2023-07-30T05:07:28.839Z,55.54
2023-07-30T05:09:49.408Z,55.74
2023-07-30T05:12:09.852Z,56.03
2023-07-30T05:14:30.462Z,55.16
2023-07-30T05:16:50.921Z,55.93
2023-07-30T05:19:11.518Z,55.31
2023-07-30T05:21:32.168Z,55.34
2023-07-30T05:23:52.744Z,55.60
2023-07-30T05:26:13.278Z,55.66
2023-07-30T05:28:34.230Z,55.03
2023-07-30T05:30:54.850Z,54.78
2023-07-30T05:33:15.281Z,55.21
2023-07-30T05:35:35.985Z,55.22
2023-07-30T05:37:56.374Z,55.01
2023-07-30T05:40:16.932Z,54.15
2023-07-30T05:42:37.584Z,54.99
2023-07-30T05:44:58.021Z,54.58
2023-07-30T05:47:18.421Z,54.22
2023-07-30T05:49:38.847Z,54.25
2023-07-30T05:51:59.372Z,54.25
2023-07-30T05:54:19.972Z,54.70
2023-07-30T05:56:40.519Z,54.91
2023-07-30T05:59:00.944Z,54.20
2023-07-30T06:01:21.517Z,54.15
2023-07-30T06:03:42.454Z,54.04
2023-07-30T06:06:03.233Z,54.30
2023-07-30T06:08:24.024Z,53.90
2023-07-30T06:10:44.987Z,54.15
2023-07-30T06:13:06.462Z,53.40
2023-07-30T06:15:26.950Z,53.57
2023-07-30T06:17:47.409Z,53.86
2023-07-30T06:20:08.736Z,53.16
2023-07-30T06:22:29.195Z,53.76
2023-07-30T06:24:49.732Z,53.04
2023-07-30T06:27:10.866Z,52.07
2023-07-30T06:29:31.559Z,52.74
2023-07-30T06:31:52.256Z,52.25
2023-07-30T06:34:12.884Z,52.00
2023-07-30T06:36:33.513Z,52.07
2023-07-30T06:38:54.176Z,52.24
2023-07-30T06:41:15.114Z,52.39
2023-07-30T06:43:35.940Z,51.81
2023-07-30T06:45:56.479Z,51.18
2023-07-30T06:48:17.079Z,51.35
2023-07-30T06:50:37.705Z,52.48
2023-07-30T06:52:58.300Z,51.55
2023-07-30T06:55:18.809Z,51.53
2023-07-30T06:57:39.435Z,51.78
2023-07-30T07:00:01.463Z,51.45
2023-07-30T07:02:22.347Z,50.86
2023-07-30T07:04:43.062Z,51.20
2023-07-30T07:07:04.704Z,51.38
2023-07-30T07:09:25.519Z,50.54
2023-07-30T07:11:46.157Z,50.07
2023-07-30T07:14:06.770Z,49.91
2023-07-30T07:16:27.434Z,50.20
2023-07-30T07:18:49.994Z,49.63
2023-07-30T07:21:11.676Z,49.77
2023-07-30T07:23:33.169Z,50.19
2023-07-30T07:25:53.917Z,48.94
2023-07-30T07:28:14.554Z,49.09
2023-07-30T07:30:37.666Z,48.90
2023-07-30T07:32:58.409Z,48.81
2023-07-30T07:35:22.421Z,48.89
2023-07-30T07:37:43.115Z,47.99
2023-07-30T07:40:04.426Z,47.45
2023-07-30T07:42:25.328Z,47.48
2023-07-30T07:44:47.254Z,46.31
2023-07-30T07:47:07.824Z,47.07
2023-07-30T07:49:28.888Z,47.11
2023-07-30T07:51:49.631Z,46.54
2023-07-30T07:54:10.201Z,46.04
2023-07-30T07:56:31.694Z,46.44
2023-07-30T07:58:52.353Z,44.58
2023-07-30T08:01:12.827Z,45.76
2023-07-30T08:03:33.397Z,45.11
2023-07-30T08:05:54.271Z,46.15
2023-07-30T08:08:14.894Z,45.71
2023-07-30T08:10:39.702Z,45.77
2023-07-30T08:13:01.864Z,45.40
2023-07-30T08:15:22.701Z,45.55
2023-07-30T08:17:43.586Z,45.20
2023-07-30T08:20:04.439Z,45.42
2023-07-30T08:22:25.108Z,45.87
2023-07-30T08:24:45.852Z,44.33
2023-07-30T08:27:06.611Z,44.18
2023-07-30T08:29:27.464Z,43.72
2023-07-30T08:31:48.470Z,44.50
2023-07-30T08:34:08.859Z,44.20
2023-07-30T08:36:29.797Z,43.39
2023-07-30T08:38:50.293Z,42.75
2023-07-30T08:41:11.237Z,42.96
2023-07-30T08:43:31.993Z,42.89
2023-07-30T08:45:52.883Z,42.32
2023-07-30T08:48:14.224Z,42.38
2023-07-30T08:50:36.246Z,42.43
2023-07-30T08:52:58.636Z,42.00
2023-07-30T08:55:20.091Z,40.99
2023-07-30T08:57:43.421Z,41.76
2023-07-30T09:00:09.168Z,41.35
2023-07-30T09:02:49.318Z,41.45
2023-07-30T09:05:10.424Z,40.99
2023-07-30T09:07:31.311Z,41.61
2023-07-30T09:09:52.516Z,40.44
2023-07-30T09:12:16.266Z,41.01
2023-07-30T09:14:36.994Z,41.07
2023-07-30T09:16:58.633Z,41.57
2023-07-30T09:19:19.447Z,40.12
2023-07-30T09:21:40.602Z,40.25
2023-07-30T09:24:06.905Z,39.95
2023-07-30T09:26:27.679Z,39.39
2023-07-30T09:28:48.454Z,39.96
2023-07-30T09:33:35.613Z,39.47
2023-07-30T09:35:56.781Z,40.28
2023-07-30T09:38:19.206Z,39.13
2023-07-30T09:40:40.192Z,39.03
2023-07-30T09:43:00.984Z,39.49
2023-07-30T09:45:28.626Z,39.53
2023-07-30T09:47:50.844Z,38.60
2023-07-30T09:50:12.431Z,38.16
2023-07-30T09:52:33.627Z,37.83
2023-07-30T09:54:54.889Z,38.07
2023-07-30T09:57:15.336Z,38.11
2023-07-30T09:59:35.875Z,37.88
2023-07-30T10:01:57.566Z,37.22
2023-07-30T10:04:21.323Z,37.33
2023-07-30T10:06:51.432Z,37.91
2023-07-30T10:09:14.011Z,38.58
2023-07-30T10:11:37.285Z,37.75
2023-07-30T10:13:58.321Z,38.19
2023-07-30T10:16:19.196Z,37.77
2023-07-30T10:18:44.685Z,37.48
2023-07-30T10:21:09.885Z,38.46
2023-07-30T10:23:33.860Z,37.96
2023-07-30T10:25:57.002Z,41.03
2023-07-30T10:28:27.954Z,42.71
2023-07-30T10:31:00.590Z,43.71
2023-07-30T10:33:21.511Z,43.20
2023-07-30T10:35:44.198Z,44.74
2023-07-30T10:38:29.517Z,45.29
2023-07-30T10:41:12.443Z,44.95
2023-07-30T10:43:44.620Z,46.91
2023-07-30T10:46:05.613Z,47.01
2023-07-30T10:48:39.398Z,48.93
2023-07-30T10:51:05.755Z,48.01
2023-07-30T10:53:27.070Z,46.20
2023-07-30T10:55:49.121Z,46.55
2023-07-30T10:58:10.067Z,46.80
2023-07-30T11:00:31.057Z,46.37
2023-07-30T11:02:55.907Z,47.45
2023-07-30T11:05:16.518Z,50.25
2023-07-30T11:07:37.294Z,51.69
2023-07-30T11:10:04.598Z,52.88
2023-07-30T11:12:25.114Z,52.98
2023-07-30T11:14:45.663Z,55.86
2023-07-30T11:17:06.440Z,53.64
2023-07-30T11:19:28.366Z,52.82
2023-07-30T11:21:52.479Z,52.22
2023-07-30T11:24:15.937Z,51.66
2023-07-30T11:26:36.656Z,51.71
2023-07-30T11:28:57.660Z,51.90
2023-07-30T11:31:21.546Z,51.55
2023-07-30T11:33:47.363Z,52.00
2023-07-30T11:36:15.224Z,52.53
2023-07-30T11:38:36.151Z,50.70
2023-07-30T11:40:57.311Z,52.27
2023-07-30T11:43:18.071Z,51.00
2023-07-30T11:45:38.496Z,50.13
2023-07-30T11:48:12.371Z,48.43
2023-07-30T11:50:46.213Z,48.31
2023-07-30T11:53:06.832Z,48.85
2023-07-30T11:55:38.669Z,50.14
2023-07-30T11:57:59.787Z,51.55
2023-07-30T12:00:24.155Z,50.90
2023-07-30T12:02:44.939Z,48.87
2023-07-30T12:05:12.237Z,48.68
2023-07-30T12:07:34.237Z,48.19
2023-07-30T12:09:55.113Z,48.04
2023-07-30T12:12:15.741Z,47.27
2023-07-30T12:14:54.836Z,47.22
2023-07-30T12:17:15.568Z,47.33
2023-07-30T12:19:39.116Z,46.57
2023-07-30T12:21:59.706Z,45.64
2023-07-30T12:24:20.367Z,47.25
2023-07-30T12:26:41.587Z,46.47
2023-07-30T12:29:02.224Z,46.94
2023-07-30T12:31:23.094Z,46.35
2023-07-30T12:33:44.634Z,46.78
2023-07-30T12:36:05.678Z,46.97
2023-07-30T12:38:26.469Z,50.89
2023-07-30T12:40:46.947Z,52.93
2023-07-30T12:43:07.590Z,55.42
2023-07-30T12:45:28.620Z,57.16
2023-07-30T12:47:49.556Z,57.37
2023-07-30T12:50:10.206Z,56.45
2023-07-30T12:52:33.122Z,56.04
2023-07-30T12:54:53.848Z,55.11
2023-07-30T12:57:15.244Z,55.57
2023-07-30T12:59:37.236Z,53.85
2023-07-30T13:01:57.979Z,53.34
2023-07-30T13:04:18.419Z,52.90
2023-07-30T13:06:39.162Z,52.58
2023-07-30T13:08:59.685Z,51.83
2023-07-30T13:11:20.232Z,52.09
2023-07-30T13:13:40.850Z,50.02
2023-07-30T13:16:02.885Z,49.52
2023-07-30T13:18:23.560Z,49.35
2023-07-30T13:20:44.069Z,48.50
2023-07-30T13:23:04.506Z,45.96
2023-07-30T13:25:25.450Z,45.85
2023-07-30T13:27:45.872Z,46.18
2023-07-30T13:30:07.271Z,45.01
2023-07-30T13:32:27.974Z,43.59
2023-07-30T13:34:48.288Z,43.24
2023-07-30T13:37:08.928Z,43.80
2023-07-30T13:39:29.679Z,42.84
2023-07-30T13:41:50.173Z,41.08
2023-07-30T13:44:12.025Z,39.52
2023-07-30T13:46:32.537Z,37.72
2023-07-30T13:48:52.984Z,37.83
2023-07-30T13:51:13.812Z,37.65
2023-07-30T13:53:36.106Z,36.46
2023-07-30T13:55:56.852Z,35.55
2023-07-30T13:58:17.620Z,35.45
2023-07-30T14:00:38.467Z,34.93
2023-07-30T14:02:59.263Z,34.61
2023-07-30T14:05:20.078Z,33.59
2023-07-30T14:07:41.672Z,32.94
2023-07-30T14:10:02.296Z,32.85
2023-07-30T14:12:22.867Z,32.67
2023-07-30T14:14:43.454Z,32.86
2023-07-30T14:17:07.864Z,32.63
2023-07-30T14:19:29.936Z,32.11
2023-07-30T14:21:50.571Z,32.61
2023-07-30T14:24:12.385Z,32.54
2023-07-30T14:26:32.849Z,32.31
2023-07-30T14:28:53.273Z,32.00
2023-07-30T14:31:15.518Z,31.44
2023-07-30T14:33:37.478Z,31.53
2023-07-30T14:35:58.157Z,32.60
2023-07-30T14:38:19.427Z,32.72
2023-07-30T14:40:39.916Z,31.42
2023-07-30T14:43:00.261Z,30.88
2023-07-30T14:45:20.652Z,30.48
2023-07-30T14:47:41.318Z,31.19
2023-07-30T14:50:03.153Z,31.61
2023-07-30T14:52:24.035Z,32.02
2023-07-30T14:54:45.804Z,31.15
2023-07-30T14:57:06.849Z,30.61
2023-07-30T14:59:27.487Z,30.48
2023-07-30T15:01:48.338Z,31.83
2023-07-30T15:04:09.303Z,31.71
2023-07-30T15:06:32.637Z,32.13
2023-07-30T15:08:54.135Z,32.69
2023-07-30T15:11:15.022Z,32.09
2023-07-30T15:13:35.801Z,31.42
2023-07-30T15:15:57.109Z,30.92
2023-07-30T15:18:17.950Z,31.04
2023-07-30T15:20:39.273Z,31.16
2023-07-30T15:23:00.242Z,31.03
2023-07-30T15:25:21.089Z,31.31
2023-07-30T15:27:41.637Z,30.68
2023-07-30T15:30:02.414Z,31.24
2023-07-30T15:32:23.888Z,31.06
2023-07-30T15:34:44.663Z,30.43
2023-07-30T15:37:05.038Z,30.89
2023-07-30T15:39:26.636Z,31.05
2023-07-30T15:41:47.636Z,30.75
2023-07-30T15:44:08.252Z,31.40
2023-07-30T15:46:28.713Z,30.56
2023-07-30T15:48:49.930Z,31.59
2023-07-30T15:51:10.583Z,31.44
2023-07-30T15:53:31.183Z,32.73
2023-07-30T15:55:51.660Z,32.95
2023-07-30T15:58:12.209Z,33.41
2023-07-30T16:00:32.756Z,34.62
2023-07-30T16:02:53.441Z,34.43
2023-07-30T16:05:14.996Z,33.98
2023-07-30T16:07:35.782Z,34.28
2023-07-30T16:09:56.596Z,34.37
2023-07-30T16:12:17.120Z,35.09
2023-07-30T16:14:37.598Z,34.83
2023-07-30T16:16:58.437Z,34.83
2023-07-30T16:19:19.097Z,36.38
2023-07-30T16:21:39.792Z,35.61
2023-07-30T16:24:00.274Z,34.69
2023-07-30T16:26:21.033Z,34.58
2023-07-30T16:28:45.154Z,34.44
2023-07-30T16:31:06.101Z,34.27
2023-07-30T16:33:26.694Z,34.15
2023-07-30T16:35:49.029Z,33.47
2023-07-30T16:38:09.824Z,33.91
2023-07-30T16:40:31.614Z,34.28
2023-07-30T16:42:52.479Z,33.80
2023-07-30T16:45:13.082Z,33.93
2023-07-30T16:47:33.573Z,33.26
2023-07-30T16:49:54.168Z,34.12
2023-07-30T16:52:17.249Z,32.87
2023-07-30T16:54:38.226Z,34.42
2023-07-30T16:56:58.681Z,34.28
2023-07-30T16:59:19.246Z,33.79
2023-07-30T17:01:39.837Z,34.58
2023-07-30T17:04:00.763Z,36.21
2023-07-30T17:06:21.051Z,35.91
2023-07-30T17:08:41.798Z,36.26
2023-07-30T17:11:07.949Z,35.89
2023-07-30T17:13:28.670Z,35.09
2023-07-30T17:15:49.339Z,35.71
2023-07-30T17:18:09.822Z,36.08
2023-07-30T17:20:30.254Z,35.65
2023-07-30T17:22:50.729Z,36.57
2023-07-30T17:25:11.326Z,36.62
2023-07-30T17:27:32.173Z,36.56
2023-07-30T17:29:56.562Z,38.20
2023-07-30T17:32:17.521Z,38.59
2023-07-30T17:34:38.388Z,38.11
2023-07-30T17:36:58.921Z,38.86
2023-07-30T17:39:19.468Z,38.69
2023-07-30T17:41:40.020Z,38.90
2023-07-30T17:44:00.646Z,38.67
2023-07-30T17:46:22.292Z,38.85
2023-07-30T17:48:43.109Z,38.39
2023-07-30T17:51:03.701Z,39.16
2023-07-30T17:53:24.306Z,38.81
2023-07-30T17:55:45.003Z,39.30
2023-07-30T17:58:05.797Z,39.15
2023-07-30T18:00:26.311Z,39.05
2023-07-30T18:02:47.129Z,39.77
2023-07-30T18:05:07.937Z,39.70
2023-07-30T18:07:28.671Z,38.71
2023-07-30T18:09:52.063Z,37.83
2023-07-30T18:12:12.774Z,37.80
2023-07-30T18:14:35.751Z,38.91
2023-07-30T18:16:56.248Z,37.73
2023-07-30T18:19:17.321Z,40.14
2023-07-30T18:21:38.009Z,38.89
2023-07-30T18:23:58.505Z,39.05
2023-07-30T18:26:19.142Z,39.10
2023-07-30T18:28:39.710Z,38.92
2023-07-30T18:31:05.451Z,39.80
2023-07-30T18:33:26.143Z,40.00
2023-07-30T18:35:46.655Z,40.06
2023-07-30T18:38:07.833Z,40.63
2023-07-30T18:40:28.502Z,40.41
2023-07-30T18:42:49.375Z,39.88
2023-07-30T18:45:10.276Z,41.76
2023-07-30T18:47:30.782Z,41.30
2023-07-30T18:49:51.457Z,39.99
2023-07-30T18:52:11.893Z,39.02
2023-07-30T18:54:32.366Z,39.46
2023-07-30T18:56:53.450Z,39.98
2023-07-30T18:59:14.208Z,39.21
2023-07-30T19:01:36.003Z,39.88
2023-07-30T19:03:56.592Z,39.86
2023-07-30T19:06:17.140Z,40.00
2023-07-30T19:08:37.559Z,39.20
2023-07-30T19:10:58.091Z,39.18
2023-07-30T19:13:19.049Z,39.26
2023-07-30T19:15:39.413Z,39.98
2023-07-30T19:17:59.987Z,40.15
2023-07-30T19:20:20.474Z,40.02
2023-07-30T19:22:41.954Z,39.20
2023-07-30T19:25:02.446Z,39.64
2023-07-30T19:27:23.182Z,39.62
2023-07-30T19:29:43.937Z,40.25
2023-07-30T19:32:04.758Z,39.77
2023-07-30T19:34:25.414Z,40.35
2023-07-30T19:36:45.968Z,39.48
2023-07-30T19:39:06.595Z,39.14
2023-07-30T19:41:28.357Z,38.82
2023-07-30T19:43:49.110Z,37.63
2023-07-30T19:46:11.678Z,37.99
2023-07-30T19:48:32.772Z,37.01
2023-07-30T19:50:54.723Z,37.06
2023-07-30T19:53:15.452Z,37.59
2023-07-30T19:55:36.602Z,37.24
2023-07-30T19:57:59.104Z,37.72
2023-07-30T20:00:19.843Z,37.51
2023-07-30T20:02:40.561Z,37.37
2023-07-30T20:05:01.024Z,36.76
2023-07-30T20:07:21.623Z,36.76
2023-07-30T20:09:42.573Z,36.63
2023-07-30T20:12:06.648Z,36.53
2023-07-30T20:14:27.203Z,36.52
2023-07-30T20:16:47.933Z,36.48
2023-07-30T20:19:08.584Z,36.16
2023-07-30T20:21:29.203Z,35.54
2023-07-30T20:23:49.859Z,35.34
2023-07-30T20:26:15.580Z,36.01
2023-07-30T20:28:36.097Z,35.64
2023-07-30T20:30:56.753Z,35.16
2023-07-30T20:33:17.689Z,35.42
2023-07-30T20:35:39.752Z,35.38
2023-07-30T20:38:01.348Z,34.83
2023-07-30T20:40:22.111Z,34.58
2023-07-30T20:42:42.499Z,34.29
2023-07-30T20:45:05.866Z,34.27
2023-07-30T20:47:26.870Z,34.44
2023-07-30T20:49:47.679Z,34.56
2023-07-30T20:52:08.524Z,34.98
2023-07-30T20:54:28.974Z,35.04
2023-07-30T20:56:49.486Z,35.38
2023-07-30T20:59:10.543Z,35.60
2023-07-30T21:01:31.177Z,35.70
2023-07-30T21:03:51.720Z,35.83
2023-07-30T21:06:12.207Z,36.12
2023-07-30T21:08:32.918Z,36.34
2023-07-30T21:10:53.781Z,36.99
2023-07-30T21:13:14.239Z,37.63
2023-07-30T21:15:34.848Z,37.97
2023-07-30T21:17:55.986Z,37.63
2023-07-30T21:20:18.273Z,38.27
2023-07-30T21:22:38.966Z,38.90
2023-07-30T21:24:59.782Z,39.45
2023-07-30T21:27:20.286Z,39.20
2023-07-30T21:29:40.860Z,39.27
2023-07-30T21:32:01.412Z,39.44
2023-07-30T21:34:22.271Z,39.50
2023-07-30T21:36:42.817Z,38.98
2023-07-30T21:39:03.687Z,39.77
2023-07-30T21:41:24.176Z,39.91
2023-07-30T21:43:44.516Z,40.21
2023-07-30T21:46:05.011Z,40.47
2023-07-30T21:48:25.550Z,41.45
2023-07-30T21:50:46.352Z,41.51
2023-07-30T21:53:07.382Z,41.74
2023-07-30T21:55:27.827Z,41.23
2023-07-30T21:57:48.361Z,41.38
2023-07-30T22:00:09.889Z,41.51
2023-07-30T22:02:30.381Z,41.40
2023-07-30T22:04:51.404Z,41.62
2023-07-30T22:07:11.933Z,41.61
2023-07-30T22:09:32.676Z,42.08
2023-07-30T22:11:53.109Z,41.87
2023-07-30T22:14:13.684Z,41.78
2023-07-30T22:16:34.534Z,42.30
2023-07-30T22:18:55.034Z,42.67
2023-07-30T22:21:15.737Z,42.48
2023-07-30T22:23:36.578Z,42.15
2023-07-30T22:26:00.598Z,42.23
2023-07-30T22:28:21.373Z,43.22
2023-07-30T22:30:42.233Z,43.53
2023-07-30T22:33:02.999Z,43.69
2023-07-30T22:35:24.104Z,43.76
2023-07-30T22:37:44.964Z,44.09
2023-07-30T22:40:06.234Z,44.11
2023-07-30T22:42:26.759Z,44.18
2023-07-30T22:44:47.761Z,44.81
2023-07-30T22:47:08.304Z,44.34
2023-07-30T22:49:28.886Z,44.70
2023-07-30T22:51:49.485Z,44.74
2023-07-30T22:54:10.106Z,45.06
2023-07-30T22:56:30.752Z,45.35
2023-07-30T22:58:51.584Z,45.43
2023-07-30T23:01:12.423Z,45.27
2023-07-30T23:03:33.010Z,45.25
2023-07-30T23:05:53.919Z,44.72
2023-07-30T23:08:14.381Z,45.04
2023-07-30T23:10:34.913Z,44.98
2023-07-30T23:12:56.567Z,44.97
2023-07-30T23:15:17.557Z,45.08
2023-07-30T23:17:38.904Z,45.20
2023-07-30T23:19:59.511Z,45.62
2023-07-30T23:22:20.329Z,45.64
2023-07-30T23:24:40.994Z,45.90
2023-07-30T23:27:01.714Z,45.99
2023-07-30T23:29:22.191Z,45.45
2023-07-30T23:31:42.875Z,45.91
2023-07-30T23:34:03.623Z,45.73
2023-07-30T23:36:24.442Z,45.94
2023-07-30T23:38:45.305Z,45.82
2023-07-30T23:41:06.088Z,45.67
2023-07-30T23:43:26.548Z,45.93
2023-07-30T23:45:47.262Z,46.11
2023-07-30T23:48:07.778Z,45.80
2023-07-30T23:50:28.383Z,45.58
2023-07-30T23:52:49.188Z,45.57
2023-07-30T23:55:10.666Z,45.66
2023-07-30T23:57:31.019Z,45.17
2023-07-30T23:59:51.539Z,45.50
